Argonne, South Dakota
Current Conditions -  °F | °C
As of 3:35 AM on Sunday 26 Oct 2014 (Local Time) from KMDS Reporting Station
Clear Clear  
Wind Chill:   Ceiling: Unl
Heat Index:   Visibility: 10mi
Dew Point: -1°   Wind: 15mph
Humidity: 61%   Direction: 140°SE
Pressure: 29.95"   Gusts: NA
Location:  44.0529°N, 97.5161°W
Report Text: KMDS 260835Z AUTO 14013KT 10SM CLR 06/M01 A2995 RMK AO2
Loading
Personal Weather Stations






























Interactive Weather Map
Tropical Storm Tracking
New forecast layout! Learn more

10-Day Weather Forecast

Advertisements
Track Severe Weather on mobile